Dahlen, North Dakota
Current Conditions -  °F | °C
As of 8:58 PM on Monday 26 Jan 2015 (Local Time) from KRDR Reporting Station
Broken Clouds Broken Clouds  
Wind Chill: 26°   Ceiling: 11000
Heat Index: 26°   Visibility: 10mi
Dew Point: 23°   Wind: 2mph
Humidity: 89%   Direction: 50°NE
Pressure: 30.01"   Gusts: NA
Location:  48.16°N, 97.93°W
Report Text: KRDR 270258Z AUTO 05002KT 10SM BKN110 M04/M05 A3001 RMK AO2 SLP179 T10361051 52016
Loading
Personal Weather Stations






























Interactive Weather Map New forecast layout! Learn more

10-Day Weather Forecast

Advertisements
Track Severe Weather on mobile